sensor_id;sensor_type;location;lat;lon;timestamp;P1;P2;P0
70249;PMS5003;57644;48.416;-123.374;2022-09-13T00:00:08;36;33;
70249;PMS5003;57644;48.416;-123.374;2022-09-13T00:02:38;34;32;
70249;PMS5003;57644;48.416;-123.374;2022-09-13T00:05:09;30;29;
70249;PMS5003;57644;48.416;-123.374;2022-09-13T00:07:40;35;34;
70249;PMS5003;57644;48.416;-123.374;2022-09-13T00:10:10;39;34;
70249;PMS5003;57644;48.416;-123.374;2022-09-13T00:12:39;31;30;
70249;PMS5003;57644;48.416;-123.374;2022-09-13T00:15:10;31;29;
70249;PMS5003;57644;48.416;-123.374;2022-09-13T00:17:40;30;28;
70249;PMS5003;57644;48.416;-123.374;2022-09-13T00:20:12;30;28;
70249;PMS5003;57644;48.416;-123.374;2022-09-13T00:22:44;29;26;
70249;PMS5003;57644;48.416;-123.374;2022-09-13T00:25:12;30;29;
70249;PMS5003;57644;48.416;-123.374;2022-09-13T00:27:44;31;27;
70249;PMS5003;57644;48.416;-123.374;2022-09-13T00:30:12;25;24;
70249;PMS5003;57644;48.416;-123.374;2022-09-13T00:32:43;28;26;
70249;PMS5003;57644;48.416;-123.374;2022-09-13T00:35:13;26;26;
70249;PMS5003;57644;48.416;-123.374;2022-09-13T00:37:44;36;31;
70249;PMS5003;57644;48.416;-123.374;2022-09-13T00:40:14;26;25;
70249;PMS5003;57644;48.416;-123.374;2022-09-13T00:42:45;32;28;
70249;PMS5003;57644;48.416;-123.374;2022-09-13T00:45:16;25;24;
70249;PMS5003;57644;48.416;-123.374;2022-09-13T00:47:47;25;24;
70249;PMS5003;57644;48.416;-123.374;2022-09-13T00:50:18;27;27;
70249;PMS5003;57644;48.416;-123.374;2022-09-13T00:52:47;24;23;
70249;PMS5003;57644;48.416;-123.374;2022-09-13T00:55:17;20;20;
70249;PMS5003;57644;48.416;-123.374;2022-09-13T00:57:46;27;25;
70249;PMS5003;57644;48.416;-123.374;2022-09-13T01:00:17;21;20;
70249;PMS5003;57644;48.416;-123.374;2022-09-13T01:02:48;29;26;
70249;PMS5003;57644;48.416;-123.374;2022-09-13T01:05:19;23;22;
70249;PMS5003;57644;48.416;-123.374;2022-09-13T01:07:49;30;28;
70249;PMS5003;57644;48.416;-123.374;2022-09-13T01:10:18;33;31;
70249;PMS5003;57644;48.416;-123.374;2022-09-13T01:12:50;35;35;
70249;PMS5003;57644;48.416;-123.374;2022-09-13T01:15:19;45;45;
70249;PMS5003;57644;48.416;-123.374;2022-09-13T01:17:49;68;67;
70249;PMS5003;57644;48.416;-123.374;2022-09-13T01:20:20;28;28;
70249;PMS5003;57644;48.416;-123.374;2022-09-13T01:27:55;30;28;
70249;PMS5003;57644;48.416;-123.374;2022-09-13T01:30:20;27;25;
70249;PMS5003;57644;48.416;-123.374;2022-09-13T01:32:56;26;26;
70249;PMS5003;57644;48.416;-123.374;2022-09-13T01:35:22;28;25;
70249;PMS5003;57644;48.416;-123.374;2022-09-13T01:37:52;22;22;
70249;PMS5003;57644;48.416;-123.374;2022-09-13T01:40:28;23;22;
70249;PMS5003;57644;48.416;-123.374;2022-09-13T01:42:56;25;25;
70249;PMS5003;57644;48.416;-123.374;2022-09-13T01:45:26;21;20;
70249;PMS5003;57644;48.416;-123.374;2022-09-13T01:47:53;25;25;
70249;PMS5003;57644;48.416;-123.374;2022-09-13T01:50:26;25;22;
70249;PMS5003;57644;48.416;-123.374;2022-09-13T01:52:54;20;20;
70249;PMS5003;57644;48.416;-123.374;2022-09-13T01:55:28;21;21;
70249;PMS5003;57644;48.416;-123.374;2022-09-13T01:57:58;42;40;
70249;PMS5003;57644;48.416;-123.374;2022-09-13T02:00:26;67;64;
70249;PMS5003;57644;48.416;-123.374;2022-09-13T02:02:57;56;54;
70249;PMS5003;57644;48.416;-123.374;2022-09-13T02:05:30;41;39;
70249;PMS5003;57644;48.416;-123.374;2022-09-13T02:07:57;29;28;
70249;PMS5003;57644;48.416;-123.374;2022-09-13T02:10:28;37;34;
70249;PMS5003;57644;48.416;-123.374;2022-09-13T02:12:57;28;25;
70249;PMS5003;57644;48.416;-123.374;2022-09-13T02:15:28;24;24;
70249;PMS5003;57644;48.416;-123.374;2022-09-13T02:18:00;27;25;
70249;PMS5003;57644;48.416;-123.374;2022-09-13T02:20:29;26;24;
70249;PMS5003;57644;48.416;-123.374;2022-09-13T02:23:00;28;25;
70249;PMS5003;57644;48.416;-123.374;2022-09-13T02:25:30;23;22;
70249;PMS5003;57644;48.416;-123.374;2022-09-13T02:28:00;24;23;
70249;PMS5003;57644;48.416;-123.374;2022-09-13T02:30:31;24;23;
70249;PMS5003;57644;48.416;-123.374;2022-09-13T02:33:07;24;23;
70249;PMS5003;57644;48.416;-123.374;2022-09-13T02:35:32;24;22;
70249;PMS5003;57644;48.416;-123.374;2022-09-13T02:38:03;25;21;
70249;PMS5003;57644;48.416;-123.374;2022-09-13T02:40:34;22;20;
70249;PMS5003;57644;48.416;-123.374;2022-09-13T02:43:04;23;20;
70249;PMS5003;57644;48.416;-123.374;2022-09-13T02:45:35;20;20;
70249;PMS5003;57644;48.416;-123.374;2022-09-13T02:48:03;21;21;
70249;PMS5003;57644;48.416;-123.374;2022-09-13T02:50:36;19;19;
70249;PMS5003;57644;48.416;-123.374;2022-09-13T02:53:07;23;22;
70249;PMS5003;57644;48.416;-123.374;2022-09-13T02:55:38;23;23;
70249;PMS5003;57644;48.416;-123.374;2022-09-13T02:58:08;27;26;
70249;PMS5003;57644;48.416;-123.374;2022-09-13T03:00:35;21;21;
70249;PMS5003;57644;48.416;-123.374;2022-09-13T03:03:07;20;17;
70249;PMS5003;57644;48.416;-123.374;2022-09-13T03:05:35;21;21;
70249;PMS5003;57644;48.416;-123.374;2022-09-13T03:08:06;20;19;
70249;PMS5003;57644;48.416;-123.374;2022-09-13T03:10:40;22;20;
70249;PMS5003;57644;48.416;-123.374;2022-09-13T03:13:13;20;20;
70249;PMS5003;57644;48.416;-123.374;2022-09-13T03:15:42;20;18;
70249;PMS5003;57644;48.416;-123.374;2022-09-13T03:18:10;17;16;
70249;PMS5003;57644;48.416;-123.374;2022-09-13T03:20:39;19;17;
70249;PMS5003;57644;48.416;-123.374;2022-09-13T03:25:42;16;16;
70249;PMS5003;57644;48.416;-123.374;2022-09-13T03:28:11;19;19;
70249;PMS5003;57644;48.416;-123.374;2022-09-13T03:30:40;22;20;
70249;PMS5003;57644;48.416;-123.374;2022-09-13T03:33:10;22;18;
70249;PMS5003;57644;48.416;-123.374;2022-09-13T03:35:39;17;17;
70249;PMS5003;57644;48.416;-123.374;2022-09-13T03:38:10;22;19;
70249;PMS5003;57644;48.416;-123.374;2022-09-13T03:40:41;21;20;
70249;PMS5003;57644;48.416;-123.374;2022-09-13T03:43:12;23;22;
70249;PMS5003;57644;48.416;-123.374;2022-09-13T03:45:41;19;18;
70249;PMS5003;57644;48.416;-123.374;2022-09-13T03:48:11;22;19;
70249;PMS5003;57644;48.416;-123.374;2022-09-13T03:50:41;19;18;
70249;PMS5003;57644;48.416;-123.374;2022-09-13T03:53:12;20;17;
70249;PMS5003;57644;48.416;-123.374;2022-09-13T03:55:42;18;18;
70249;PMS5003;57644;48.416;-123.374;2022-09-13T03:58:14;18;17;
70249;PMS5003;57644;48.416;-123.374;2022-09-13T04:00:43;18;17;
70249;PMS5003;57644;48.416;-123.374;2022-09-13T04:03:12;17;16;
70249;PMS5003;57644;48.416;-123.374;2022-09-13T04:05:46;24;22;
70249;PMS5003;57644;48.416;-123.374;2022-09-13T04:08:13;18;17;
70249;PMS5003;57644;48.416;-123.374;2022-09-13T04:10:43;19;18;
70249;PMS5003;57644;48.416;-123.374;2022-09-13T04:13:14;20;18;
70249;PMS5003;57644;48.416;-123.374;2022-09-13T04:15:44;23;23;
70249;PMS5003;57644;48.416;-123.374;2022-09-13T04:18:15;21;19;
70249;PMS5003;57644;48.416;-123.374;2022-09-13T04:23:15;26;20;
70249;PMS5003;57644;48.416;-123.374;2022-09-13T04:25:45;20;19;
70249;PMS5003;57644;48.416;-123.374;2022-09-13T04:28:15;21;20;
70249;PMS5003;57644;48.416;-123.374;2022-09-13T04:30:46;18;17;
70249;PMS5003;57644;48.416;-123.374;2022-09-13T04:33:16;17;16;
70249;PMS5003;57644;48.416;-123.374;2022-09-13T04:35:46;19;17;
70249;PMS5003;57644;48.416;-123.374;2022-09-13T04:38:25;17;17;
70249;PMS5003;57644;48.416;-123.374;2022-09-13T04:40:51;18;18;
70249;PMS5003;57644;48.416;-123.374;2022-09-13T04:43:17;20;17;
70249;PMS5003;57644;48.416;-123.374;2022-09-13T04:45:47;21;20;
70249;PMS5003;57644;48.416;-123.374;2022-09-13T04:48:18;18;16;
70249;PMS5003;57644;48.416;-123.374;2022-09-13T04:50:48;16;15;
70249;PMS5003;57644;48.416;-123.374;2022-09-13T04:53:19;15;15;
70249;PMS5003;57644;48.416;-123.374;2022-09-13T04:55:49;19;17;
70249;PMS5003;57644;48.416;-123.374;2022-09-13T04:58:20;20;20;
70249;PMS5003;57644;48.416;-123.374;2022-09-13T05:00:49;21;18;
70249;PMS5003;57644;48.416;-123.374;2022-09-13T05:03:20;20;19;
70249;PMS5003;57644;48.416;-123.374;2022-09-13T05:05:51;22;21;
70249;PMS5003;57644;48.416;-123.374;2022-09-13T05:08:21;23;22;
70249;PMS5003;57644;48.416;-123.374;2022-09-13T05:10:51;22;22;
70249;PMS5003;57644;48.416;-123.374;2022-09-13T05:13:22;18;18;
70249;PMS5003;57644;48.416;-123.374;2022-09-13T05:15:54;20;17;
70249;PMS5003;57644;48.416;-123.374;2022-09-13T05:18:25;21;20;
70249;PMS5003;57644;48.416;-123.374;2022-09-13T05:20:54;19;17;
70249;PMS5003;57644;48.416;-123.374;2022-09-13T05:23:24;22;20;
70249;PMS5003;57644;48.416;-123.374;2022-09-13T05:25:54;20;19;
70249;PMS5003;57644;48.416;-123.374;2022-09-13T05:28:26;18;17;
70249;PMS5003;57644;48.416;-123.374;2022-09-13T05:30:56;26;23;
70249;PMS5003;57644;48.416;-123.374;2022-09-13T05:33:27;18;18;
70249;PMS5003;57644;48.416;-123.374;2022-09-13T05:35:57;17;17;
70249;PMS5003;57644;48.416;-123.374;2022-09-13T05:38:27;18;17;
70249;PMS5003;57644;48.416;-123.374;2022-09-13T05:40:58;19;19;
70249;PMS5003;57644;48.416;-123.374;2022-09-13T05:43:28;22;20;
70249;PMS5003;57644;48.416;-123.374;2022-09-13T05:46:02;17;17;
70249;PMS5003;57644;48.416;-123.374;2022-09-13T05:48:29;19;19;
70249;PMS5003;57644;48.416;-123.374;2022-09-13T05:53:29;22;20;
70249;PMS5003;57644;48.416;-123.374;2022-09-13T05:55:59;25;22;
70249;PMS5003;57644;48.416;-123.374;2022-09-13T05:58:29;22;19;
70249;PMS5003;57644;48.416;-123.374;2022-09-13T06:00:59;22;20;
70249;PMS5003;57644;48.416;-123.374;2022-09-13T06:03:29;19;18;
70249;PMS5003;57644;48.416;-123.374;2022-09-13T06:05:59;22;20;
70249;PMS5003;57644;48.416;-123.374;2022-09-13T06:08:30;18;17;
70249;PMS5003;57644;48.416;-123.374;2022-09-13T06:11:00;21;18;
70249;PMS5003;57644;48.416;-123.374;2022-09-13T06:13:31;17;16;
70249;PMS5003;57644;48.416;-123.374;2022-09-13T06:16:02;23;21;
70249;PMS5003;57644;48.416;-123.374;2022-09-13T06:18:31;19;19;
70249;PMS5003;57644;48.416;-123.374;2022-09-13T06:21:02;16;16;
70249;PMS5003;57644;48.416;-123.374;2022-09-13T06:23:32;19;18;
70249;PMS5003;57644;48.416;-123.374;2022-09-13T06:26:03;17;15;
70249;PMS5003;57644;48.416;-123.374;2022-09-13T06:28:33;16;15;
70249;PMS5003;57644;48.416;-123.374;2022-09-13T06:31:04;22;20;
70249;PMS5003;57644;48.416;-123.374;2022-09-13T06:33:35;18;17;
70249;PMS5003;57644;48.416;-123.374;2022-09-13T06:36:04;21;20;
70249;PMS5003;57644;48.416;-123.374;2022-09-13T06:38:34;16;15;
70249;PMS5003;57644;48.416;-123.374;2022-09-13T06:43:34;17;16;
70249;PMS5003;57644;48.416;-123.374;2022-09-13T06:46:06;18;16;
70249;PMS5003;57644;48.416;-123.374;2022-09-13T06:48:36;16;15;
70249;PMS5003;57644;48.416;-123.374;2022-09-13T06:51:08;19;19;
70249;PMS5003;57644;48.416;-123.374;2022-09-13T06:53:36;13;13;
70249;PMS5003;57644;48.416;-123.374;2022-09-13T06:56:07;15;13;
70249;PMS5003;57644;48.416;-123.374;2022-09-13T06:58:38;16;16;
70249;PMS5003;57644;48.416;-123.374;2022-09-13T07:01:07;27;19;
70249;PMS5003;57644;48.416;-123.374;2022-09-13T07:06:08;18;17;
70249;PMS5003;57644;48.416;-123.374;2022-09-13T07:08:38;17;16;
70249;PMS5003;57644;48.416;-123.374;2022-09-13T07:11:08;16;16;
70249;PMS5003;57644;48.416;-123.374;2022-09-13T07:13:38;15;15;
70249;PMS5003;57644;48.416;-123.374;2022-09-13T07:16:09;20;20;
70249;PMS5003;57644;48.416;-123.374;2022-09-13T07:18:39;21;20;
70249;PMS5003;57644;48.416;-123.374;2022-09-13T07:21:11;19;18;
70249;PMS5003;57644;48.416;-123.374;2022-09-13T07:23:40;15;15;
70249;PMS5003;57644;48.416;-123.374;2022-09-13T07:26:10;17;14;
70249;PMS5003;57644;48.416;-123.374;2022-09-13T07:28:42;19;18;
70249;PMS5003;57644;48.416;-123.374;2022-09-13T07:31:12;14;13;
70249;PMS5003;57644;48.416;-123.374;2022-09-13T07:33:43;16;16;
70249;PMS5003;57644;48.416;-123.374;2022-09-13T07:36:12;17;15;
70249;PMS5003;57644;48.416;-123.374;2022-09-13T07:38:42;18;16;
70249;PMS5003;57644;48.416;-123.374;2022-09-13T07:41:13;15;14;
70249;PMS5003;57644;48.416;-123.374;2022-09-13T07:43:43;18;16;
70249;PMS5003;57644;48.416;-123.374;2022-09-13T07:46:14;17;16;
70249;PMS5003;57644;48.416;-123.374;2022-09-13T07:48:43;17;16;
70249;PMS5003;57644;48.416;-123.374;2022-09-13T07:51:14;15;14;
70249;PMS5003;57644;48.416;-123.374;2022-09-13T07:53:44;17;17;
70249;PMS5003;57644;48.416;-123.374;2022-09-13T07:56:14;13;13;
70249;PMS5003;57644;48.416;-123.374;2022-09-13T07:58:45;18;18;
70249;PMS5003;57644;48.416;-123.374;2022-09-13T08:01:15;18;16;
70249;PMS5003;57644;48.416;-123.374;2022-09-13T08:03:49;11;11;
70249;PMS5003;57644;48.416;-123.374;2022-09-13T08:06:15;15;14;
70249;PMS5003;57644;48.416;-123.374;2022-09-13T08:08:45;16;15;
70249;PMS5003;57644;48.416;-123.374;2022-09-13T08:11:16;19;17;
70249;PMS5003;57644;48.416;-123.374;2022-09-13T08:13:58;15;15;
70249;PMS5003;57644;48.416;-123.374;2022-09-13T08:16:17;17;16;
70249;PMS5003;57644;48.416;-123.374;2022-09-13T08:18:47;15;14;
70249;PMS5003;57644;48.416;-123.374;2022-09-13T08:21:17;17;17;
70249;PMS5003;57644;48.416;-123.374;2022-09-13T08:23:48;18;17;
70249;PMS5003;57644;48.416;-123.374;2022-09-13T08:26:18;16;14;
70249;PMS5003;57644;48.416;-123.374;2022-09-13T08:28:48;17;16;
70249;PMS5003;57644;48.416;-123.374;2022-09-13T08:31:19;19;19;
70249;PMS5003;57644;48.416;-123.374;2022-09-13T08:33:49;16;14;
70249;PMS5003;57644;48.416;-123.374;2022-09-13T08:36:20;18;17;
70249;PMS5003;57644;48.416;-123.374;2022-09-13T08:38:51;18;17;
70249;PMS5003;57644;48.416;-123.374;2022-09-13T08:41:26;17;16;
70249;PMS5003;57644;48.416;-123.374;2022-09-13T08:43:52;19;15;
70249;PMS5003;57644;48.416;-123.374;2022-09-13T08:46:21;14;13;
70249;PMS5003;57644;48.416;-123.374;2022-09-13T08:48:52;16;16;
70249;PMS5003;57644;48.416;-123.374;2022-09-13T08:51:27;16;15;
70249;PMS5003;57644;48.416;-123.374;2022-09-13T08:53:52;14;12;
70249;PMS5003;57644;48.416;-123.374;2022-09-13T08:56:23;20;20;
70249;PMS5003;57644;48.416;-123.374;2022-09-13T08:58:58;16;16;
70249;PMS5003;57644;48.416;-123.374;2022-09-13T09:01:27;18;18;
70249;PMS5003;57644;48.416;-123.374;2022-09-13T09:03:55;14;14;
70249;PMS5003;57644;48.416;-123.374;2022-09-13T09:06:23;17;14;
70249;PMS5003;57644;48.416;-123.374;2022-09-13T09:08:56;15;14;
70249;PMS5003;57644;48.416;-123.374;2022-09-13T09:11:26;18;15;
70249;PMS5003;57644;48.416;-123.374;2022-09-13T09:13:57;18;18;
70249;PMS5003;57644;48.416;-123.374;2022-09-13T09:16:27;18;15;
70249;PMS5003;57644;48.416;-123.374;2022-09-13T09:18:55;14;14;
70249;PMS5003;57644;48.416;-123.374;2022-09-13T09:21:25;13;13;
70249;PMS5003;57644;48.416;-123.374;2022-09-13T09:23:55;13;13;
70249;PMS5003;57644;48.416;-123.374;2022-09-13T09:26:26;13;13;
70249;PMS5003;57644;48.416;-123.374;2022-09-13T09:28:57;13;12;
70249;PMS5003;57644;48.416;-123.374;2022-09-13T09:31:28;22;20;
70249;PMS5003;57644;48.416;-123.374;2022-09-13T09:34:01;16;16;
70249;PMS5003;57644;48.416;-123.374;2022-09-13T09:36:35;17;17;
70249;PMS5003;57644;48.416;-123.374;2022-09-13T09:38:58;15;14;
70249;PMS5003;57644;48.416;-123.374;2022-09-13T09:41:29;19;17;
70249;PMS5003;57644;48.416;-123.374;2022-09-13T09:44:00;16;14;
70249;PMS5003;57644;48.416;-123.374;2022-09-13T09:46:30;19;19;
70249;PMS5003;57644;48.416;-123.374;2022-09-13T09:49:03;16;16;
70249;PMS5003;57644;48.416;-123.374;2022-09-13T09:51:30;18;15;
70249;PMS5003;57644;48.416;-123.374;2022-09-13T09:54:01;17;15;
70249;PMS5003;57644;48.416;-123.374;2022-09-13T09:56:31;15;15;
70249;PMS5003;57644;48.416;-123.374;2022-09-13T09:59:00;16;15;
70249;PMS5003;57644;48.416;-123.374;2022-09-13T10:01:31;20;19;
70249;PMS5003;57644;48.416;-123.374;2022-09-13T10:04:03;16;16;
70249;PMS5003;57644;48.416;-123.374;2022-09-13T10:06:31;24;22;
70249;PMS5003;57644;48.416;-123.374;2022-09-13T10:09:03;17;16;
70249;PMS5003;57644;48.416;-123.374;2022-09-13T10:14:02;18;18;
70249;PMS5003;57644;48.416;-123.374;2022-09-13T10:16:32;20;18;
70249;PMS5003;57644;48.416;-123.374;2022-09-13T10:21:34;19;19;
70249;PMS5003;57644;48.416;-123.374;2022-09-13T10:26:34;26;26;
70249;PMS5003;57644;48.416;-123.374;2022-09-13T10:29:05;29;26;
70249;PMS5003;57644;48.416;-123.374;2022-09-13T10:31:36;23;22;
70249;PMS5003;57644;48.416;-123.374;2022-09-13T10:34:10;23;22;
70249;PMS5003;57644;48.416;-123.374;2022-09-13T10:36:37;23;20;
70249;PMS5003;57644;48.416;-123.374;2022-09-13T10:39:12;27;25;
70249;PMS5003;57644;48.416;-123.374;2022-09-13T10:41:39;22;20;
70249;PMS5003;57644;48.416;-123.374;2022-09-13T10:44:19;23;22;
70249;PMS5003;57644;48.416;-123.374;2022-09-13T10:46:53;18;18;
70249;PMS5003;57644;48.416;-123.374;2022-09-13T10:56:39;28;25;
70249;PMS5003;57644;48.416;-123.374;2022-09-13T10:59:15;26;25;
70249;PMS5003;57644;48.416;-123.374;2022-09-13T11:01:42;23;23;
70249;PMS5003;57644;48.416;-123.374;2022-09-13T11:06:41;22;21;
70249;PMS5003;57644;48.416;-123.374;2022-09-13T11:09:12;27;27;
70249;PMS5003;57644;48.416;-123.374;2022-09-13T11:11:44;26;26;
70249;PMS5003;57644;48.416;-123.374;2022-09-13T11:14:17;25;24;
70249;PMS5003;57644;48.416;-123.374;2022-09-13T11:16:46;23;22;
70249;PMS5003;57644;48.416;-123.374;2022-09-13T11:21:52;28;27;
70249;PMS5003;57644;48.416;-123.374;2022-09-13T11:24:18;29;27;
70249;PMS5003;57644;48.416;-123.374;2022-09-13T11:26:47;23;22;
70249;PMS5003;57644;48.416;-123.374;2022-09-13T11:29:18;30;29;
70249;PMS5003;57644;48.416;-123.374;2022-09-13T11:31:46;28;27;
70249;PMS5003;57644;48.416;-123.374;2022-09-13T11:34:17;28;26;
70249;PMS5003;57644;48.416;-123.374;2022-09-13T11:36:52;18;18;
70249;PMS5003;57644;48.416;-123.374;2022-09-13T11:39:18;22;21;
70249;PMS5003;57644;48.416;-123.374;2022-09-13T11:41:49;18;18;
70249;PMS5003;57644;48.416;-123.374;2022-09-13T11:46:48;23;22;
70249;PMS5003;57644;48.416;-123.374;2022-09-13T11:49:23;22;22;
70249;PMS5003;57644;48.416;-123.374;2022-09-13T11:51:50;24;23;
70249;PMS5003;57644;48.416;-123.374;2022-09-13T11:54:22;22;22;
70249;PMS5003;57644;48.416;-123.374;2022-09-13T11:56:51;23;22;
70249;PMS5003;57644;48.416;-123.374;2022-09-13T11:59:22;20;20;
70249;PMS5003;57644;48.416;-123.374;2022-09-13T12:01:52;22;20;
70249;PMS5003;57644;48.416;-123.374;2022-09-13T12:04:22;21;19;
70249;PMS5003;57644;48.416;-123.374;2022-09-13T12:06:53;21;20;
70249;PMS5003;57644;48.416;-123.374;2022-09-13T12:09:24;20;18;
70249;PMS5003;57644;48.416;-123.374;2022-09-13T12:11:53;20;17;
70249;PMS5003;57644;48.416;-123.374;2022-09-13T12:14:23;17;17;
70249;PMS5003;57644;48.416;-123.374;2022-09-13T12:16:53;20;19;
70249;PMS5003;57644;48.416;-123.374;2022-09-13T12:19:23;18;18;
70249;PMS5003;57644;48.416;-123.374;2022-09-13T12:21:53;19;19;
70249;PMS5003;57644;48.416;-123.374;2022-09-13T12:24:26;19;18;
70249;PMS5003;57644;48.416;-123.374;2022-09-13T12:26:55;19;19;
70249;PMS5003;57644;48.416;-123.374;2022-09-13T12:29:27;21;21;
70249;PMS5003;57644;48.416;-123.374;2022-09-13T12:31:55;22;19;
70249;PMS5003;57644;48.416;-123.374;2022-09-13T12:34:25;16;16;
70249;PMS5003;57644;48.416;-123.374;2022-09-13T12:36:57;19;19;
70249;PMS5003;57644;48.416;-123.374;2022-09-13T12:42:00;14;14;
70249;PMS5003;57644;48.416;-123.374;2022-09-13T12:44:30;20;19;
70249;PMS5003;57644;48.416;-123.374;2022-09-13T12:49:30;24;24;
70249;PMS5003;57644;48.416;-123.374;2022-09-13T12:59:33;23;22;
70249;PMS5003;57644;48.416;-123.374;2022-09-13T13:01:59;28;25;
70249;PMS5003;57644;48.416;-123.374;2022-09-13T13:07:01;22;21;
70249;PMS5003;57644;48.416;-123.374;2022-09-13T13:09:32;18;18;
70249;PMS5003;57644;48.416;-123.374;2022-09-13T13:12:01;21;20;
70249;PMS5003;57644;48.416;-123.374;2022-09-13T13:19:32;21;20;
70249;PMS5003;57644;48.416;-123.374;2022-09-13T13:29:33;24;22;
70249;PMS5003;57644;48.416;-123.374;2022-09-13T13:32:07;21;21;
70249;PMS5003;57644;48.416;-123.374;2022-09-13T13:34:37;22;19;
70249;PMS5003;57644;48.416;-123.374;2022-09-13T13:37:05;21;20;
70249;PMS5003;57644;48.416;-123.374;2022-09-13T13:39:36;22;20;
70249;PMS5003;57644;48.416;-123.374;2022-09-13T13:42:11;20;18;
70249;PMS5003;57644;48.416;-123.374;2022-09-13T13:49:41;19;18;
70249;PMS5003;57644;48.416;-123.374;2022-09-13T13:59:39;22;20;
70249;PMS5003;57644;48.416;-123.374;2022-09-13T14:02:10;21;19;
70249;PMS5003;57644;48.416;-123.374;2022-09-13T14:07:13;23;22;
70249;PMS5003;57644;48.416;-123.374;2022-09-13T14:09:42;20;19;
70249;PMS5003;57644;48.416;-123.374;2022-09-13T14:12:15;19;18;
70249;PMS5003;57644;48.416;-123.374;2022-09-13T14:14:45;22;20;
70249;PMS5003;57644;48.416;-123.374;2022-09-13T14:19:43;23;20;
70249;PMS5003;57644;48.416;-123.374;2022-09-13T14:22:15;21;18;
70249;PMS5003;57644;48.416;-123.374;2022-09-13T14:24:45;18;17;
70249;PMS5003;57644;48.416;-123.374;2022-09-13T14:27:16;24;22;
70249;PMS5003;57644;48.416;-123.374;2022-09-13T14:29:46;20;19;
70249;PMS5003;57644;48.416;-123.374;2022-09-13T14:32:16;24;22;
70249;PMS5003;57644;48.416;-123.374;2022-09-13T14:37:17;18;18;
70249;PMS5003;57644;48.416;-123.374;2022-09-13T14:42:17;25;23;
70249;PMS5003;57644;48.416;-123.374;2022-09-13T14:44:48;23;22;
70249;PMS5003;57644;48.416;-123.374;2022-09-13T14:47:20;21;19;
70249;PMS5003;57644;48.416;-123.374;2022-09-13T14:49:50;26;23;
70249;PMS5003;57644;48.416;-123.374;2022-09-13T14:52:21;20;19;
70249;PMS5003;57644;48.416;-123.374;2022-09-13T14:54:50;21;21;
70249;PMS5003;57644;48.416;-123.374;2022-09-13T14:57:21;21;19;
70249;PMS5003;57644;48.416;-123.374;2022-09-13T14:59:51;24;24;
70249;PMS5003;57644;48.416;-123.374;2022-09-13T15:02:22;21;20;
70249;PMS5003;57644;48.416;-123.374;2022-09-13T15:04:52;18;17;
70249;PMS5003;57644;48.416;-123.374;2022-09-13T15:07:26;24;22;
70249;PMS5003;57644;48.416;-123.374;2022-09-13T15:10:04;19;19;
70249;PMS5003;57644;48.416;-123.374;2022-09-13T15:12:23;20;20;
70249;PMS5003;57644;48.416;-123.374;2022-09-13T15:17:23;24;23;
70249;PMS5003;57644;48.416;-123.374;2022-09-13T15:20:01;19;18;
70249;PMS5003;57644;48.416;-123.374;2022-09-13T15:22:24;20;20;
70249;PMS5003;57644;48.416;-123.374;2022-09-13T15:24:54;21;20;
70249;PMS5003;57644;48.416;-123.374;2022-09-13T15:27:25;24;22;
70249;PMS5003;57644;48.416;-123.374;2022-09-13T15:29:55;23;21;
70249;PMS5003;57644;48.416;-123.374;2022-09-13T15:34:56;19;18;
70249;PMS5003;57644;48.416;-123.374;2022-09-13T15:37:30;18;17;
70249;PMS5003;57644;48.416;-123.374;2022-09-13T15:42:25;20;20;
70249;PMS5003;57644;48.416;-123.374;2022-09-13T15:44:55;18;18;
70249;PMS5003;57644;48.416;-123.374;2022-09-13T15:47:25;23;21;
70249;PMS5003;57644;48.416;-123.374;2022-09-13T15:49:55;17;17;
70249;PMS5003;57644;48.416;-123.374;2022-09-13T15:52:26;18;17;
70249;PMS5003;57644;48.416;-123.374;2022-09-13T15:54:57;20;19;
70249;PMS5003;57644;48.416;-123.374;2022-09-13T15:57:27;21;19;
70249;PMS5003;57644;48.416;-123.374;2022-09-13T15:59:56;19;17;
70249;PMS5003;57644;48.416;-123.374;2022-09-13T16:02:30;19;18;
70249;PMS5003;57644;48.416;-123.374;2022-09-13T16:04:58;21;17;
70249;PMS5003;57644;48.416;-123.374;2022-09-13T16:07:28;21;18;
70249;PMS5003;57644;48.416;-123.374;2022-09-13T16:09:58;21;19;
70249;PMS5003;57644;48.416;-123.374;2022-09-13T16:12:28;19;17;
70249;PMS5003;57644;48.416;-123.374;2022-09-13T16:14:59;21;18;
70249;PMS5003;57644;48.416;-123.374;2022-09-13T16:17:29;19;19;
70249;PMS5003;57644;48.416;-123.374;2022-09-13T16:20:00;18;17;
70249;PMS5003;57644;48.416;-123.374;2022-09-13T16:22:31;20;18;
70249;PMS5003;57644;48.416;-123.374;2022-09-13T16:25:01;18;17;
70249;PMS5003;57644;48.416;-123.374;2022-09-13T16:27:31;26;25;
70249;PMS5003;57644;48.416;-123.374;2022-09-13T16:30:02;20;20;
70249;PMS5003;57644;48.416;-123.374;2022-09-13T16:32:32;16;16;
70249;PMS5003;57644;48.416;-123.374;2022-09-13T16:35:03;20;20;
70249;PMS5003;57644;48.416;-123.374;2022-09-13T16:37:33;16;16;
70249;PMS5003;57644;48.416;-123.374;2022-09-13T16:40:04;17;17;
70249;PMS5003;57644;48.416;-123.374;2022-09-13T16:42:34;17;17;
70249;PMS5003;57644;48.416;-123.374;2022-09-13T16:45:05;19;18;
70249;PMS5003;57644;48.416;-123.374;2022-09-13T16:47:34;18;18;
70249;PMS5003;57644;48.416;-123.374;2022-09-13T16:50:05;22;21;
70249;PMS5003;57644;48.416;-123.374;2022-09-13T16:52:36;20;20;
70249;PMS5003;57644;48.416;-123.374;2022-09-13T16:55:06;18;17;
70249;PMS5003;57644;48.416;-123.374;2022-09-13T16:57:36;19;19;
70249;PMS5003;57644;48.416;-123.374;2022-09-13T17:00:07;19;19;
70249;PMS5003;57644;48.416;-123.374;2022-09-13T17:02:37;18;18;
70249;PMS5003;57644;48.416;-123.374;2022-09-13T17:05:08;20;19;
70249;PMS5003;57644;48.416;-123.374;2022-09-13T17:07:38;21;20;
70249;PMS5003;57644;48.416;-123.374;2022-09-13T17:10:09;17;17;
70249;PMS5003;57644;48.416;-123.374;2022-09-13T17:12:40;19;18;
70249;PMS5003;57644;48.416;-123.374;2022-09-13T17:15:11;25;22;
70249;PMS5003;57644;48.416;-123.374;2022-09-13T17:17:40;17;17;
70249;PMS5003;57644;48.416;-123.374;2022-09-13T17:20:11;20;17;
70249;PMS5003;57644;48.416;-123.374;2022-09-13T17:22:41;19;18;
70249;PMS5003;57644;48.416;-123.374;2022-09-13T17:25:11;17;17;
70249;PMS5003;57644;48.416;-123.374;2022-09-13T17:27:42;15;15;